Terminal Aerodrome Forecast
Issued by NWS Glasgow, MT

Home | Current Version | Previous Version | Text Only | Print | Product List | Glossary On
Versions: 1 2 3 4 5 6 7 8 9 10 11 12 13 14 15 16 17 18 19 20 21 22 23 24 25 26 27 28
000
FTUS45 KGGW 311700
TAFGGW
TAF
KGGW 311733Z 3118/0118 06025G33KT 1/2SM SN BLSN VV014
     FM010000 06014KT 3SM -SN OVC016
     FM010600 08010KT P6SM BKN012
     FM011200 VRB03KT P6SM BKN014=

USA.gov is the U.S. government's official web portal to all federal, state and local government web resources and services.